Main page
METAR-TAF:

METAR-TAF

Airports :

Al Najaf International Airport

Najaf, Iraq

latitude: 31-59-23N, longitude: 44-24-15E, elevation: 31 m

Current weather observation

The report was made 41 minutes ago, at 19:00 UTC
Calm wind
Temperature 9°C
Humidity 87%
Pressure 1024 hPa
Visibility: 6000 m

METAR: ORNI 271900Z 00000KT 6000 NSC 09/07 Q1024 NOSIG

Time: 22:41 (19:41 UTC)

Forecast

The report was made 3 hours and 41 minutes ago, at 16:00 UTC
Forecast valid from 27 at 18 UTC to 28 at 18 UTC
Wind 8 kt from the Northwest
Visibility 10 km or more
no clouds below 1500 m and no cumulonimbus
Becoming
from 28 at 08 UTC to 28 at 10 UTC
Wind 8 kt from the South/Southeast
Visibility: 7000 m

TAF: ORNI 271600Z 2718/2818 32008KT CAVOK BECMG 2808/2810 16008KT 7000 NSC

Weather observations and forecasts of more than 4000 airports (METAR and TAF reports).

The available stations are represented by yellow and red dots on the map.

Hover mouse over dot to see the name of the station.

Then click to see weather observations and forecasts.

To change the map : click on the green buttons with a black cross to zoom in, on the green button with a dash to zoom out, or on the green arrows for adjacent maps.


METAR-TAF: